Time;durP1;ratioP1;P1;durP2;ratioP2;P2;SDS_P1;SDS_P2;PMS_P1;PMS_P2;Temp;Humidity;BMP_temperature;BMP_pressure;BME280_temperature;BME280_humidity;BME280_pressure;Samples;Min_cycle;Max_cycle;Signal;HPM_P1;HPM_P2
2021/04/21 00:01:18;;;;;;;62.45;26.23;;;;;;;5.81;70.00;98571.57;2226195;79;21279;-73
2021/04/21 00:04:20;;;;;;;62.48;25.30;;;;;;;5.80;70.18;98569.88;2226280;79;21720;-73
2021/04/21 00:07:21;;;;;;;56.70;23.67;;;;;;;5.84;70.12;98569.30;2226211;79;21284;-73
2021/04/21 00:10:24;;;;;;;50.40;21.65;;;;;;;5.84;70.20;98574.03;2226273;79;21299;-73
2021/04/21 00:13:26;;;;;;;54.08;22.10;;;;;;;5.87;70.18;98571.75;2226412;79;21267;-73
2021/04/21 00:16:28;;;;;;;40.10;17.25;;;;;;;5.90;70.49;98574.20;2197666;80;21130;-73
2021/04/21 00:19:30;;;;;;;44.53;18.25;;;;;;;5.94;70.20;98562.74;2226414;79;21261;-73
2021/04/21 00:22:32;;;;;;;36.17;15.10;;;;;;;5.98;70.11;98564.33;2226344;79;21158;-73
2021/04/21 00:25:34;;;;;;;39.60;17.70;;;;;;;5.96;69.97;98559.63;2226373;79;21134;-73
2021/04/21 00:28:36;;;;;;;39.60;16.82;;;;;;;5.86;70.15;98559.20;2226410;79;21272;-73
2021/04/21 00:31:38;;;;;;;36.33;14.83;;;;;;;5.86;70.28;98563.11;2226374;79;21331;-73
2021/04/21 00:34:40;;;;;;;35.95;14.70;;;;;;;5.86;70.24;98568.31;2226470;79;21736;-73
2021/04/21 00:37:42;;;;;;;44.15;17.80;;;;;;;5.84;70.45;98560.19;2226421;80;21138;-73
2021/04/21 00:40:44;;;;;;;41.60;17.65;;;;;;;5.89;70.41;98553.02;2226502;79;21264;-73
2021/04/21 00:43:46;;;;;;;34.33;13.75;;;;;;;5.88;70.55;98549.55;2226449;79;21145;-73
2021/04/21 00:46:48;;;;;;;42.88;17.27;;;;;;;5.90;70.94;98552.95;2226592;79;21262;-73
2021/04/21 00:49:50;;;;;;;37.67;16.20;;;;;;;5.84;70.87;98553.20;2226325;79;21288;-73
2021/04/21 00:52:52;;;;;;;36.08;15.45;;;;;;;5.79;70.86;98549.12;2226813;79;21287;-73
2021/04/21 00:55:54;;;;;;;51.53;21.07;;;;;;;5.68;71.34;98553.53;2226373;79;21275;-73
2021/04/21 00:58:56;;;;;;;71.50;27.07;;;;;;;5.59;71.24;98556.53;2226377;79;21273;-73
2021/04/21 01:01:58;;;;;;;61.13;24.20;;;;;;;5.66;71.19;98551.00;2226343;79;21719;-73
2021/04/21 01:05:01;;;;;;;114.62;41.90;;;;;;;5.67;70.95;98545.33;2226319;79;21592;-73
2021/04/21 01:08:02;;;;;;;112.37;43.02;;;;;;;5.66;71.12;98544.50;2226306;79;21311;-73
2021/04/21 01:11:05;;;;;;;85.30;33.18;;;;;;;5.69;70.96;98537.02;2197908;80;21731;-73
2021/04/21 01:14:07;;;;;;;60.05;23.65;;;;;;;5.62;70.92;98540.81;2226421;79;21700;-73
2021/04/21 01:17:10;;;;;;;53.45;20.30;;;;;;;5.54;70.94;98536.77;2226194;80;21303;-73
2021/04/21 01:20:12;;;;;;;46.53;17.80;;;;;;;5.60;71.34;98536.11;2226031;79;21110;-73
2021/04/21 01:23:14;;;;;;;35.98;14.95;;;;;;;5.59;71.14;98531.81;2219402;80;21125;-73
2021/04/21 01:26:15;;;;;;;33.05;14.45;;;;;;;5.59;71.14;98531.81;2219526;80;21684;-73
2021/04/21 01:29:17;;;;;;;32.45;14.85;;;;;;;5.58;71.32;98532.28;2219411;80;21287;-73
2021/04/21 01:32:19;;;;;;;36.90;15.15;;;;;;;5.64;71.57;98532.47;2219396;80;21165;-72
2021/04/21 01:35:21;;;;;;;127.60;42.67;;;;;;;5.66;71.40;98532.79;2219318;80;21296;-73
2021/04/21 01:38:24;;;;;;;63.08;25.57;;;;;;;5.69;71.50;98538.31;2219742;80;21288;-73
2021/04/21 01:41:26;;;;;;;49.27;18.32;;;;;;;5.65;71.62;98551.08;2219522;80;21141;-73
2021/04/21 01:44:28;;;;;;;34.15;12.78;;;;;;;5.43;71.89;98545.53;2219494;80;21720;-73
2021/04/21 01:47:30;;;;;;;41.33;16.52;;;;;;;5.25;72.23;98540.67;2219409;80;21169;-73
2021/04/21 01:50:35;;;;;;;50.78;20.80;;;;;;;5.25;72.31;98538.54;2219605;80;21320;-73
2021/04/21 01:53:37;;;;;;;44.45;18.80;;;;;;;5.28;72.27;98541.84;2219222;80;21739;-72
2021/04/21 01:56:39;;;;;;;55.78;24.20;;;;;;;5.36;72.35;98541.05;2219411;80;21145;-73
2021/04/21 01:59:41;;;;;;;43.85;18.70;;;;;;;5.41;72.47;98534.80;2219394;80;21118;-72
2021/04/21 02:02:43;;;;;;;38.50;17.02;;;;;;;5.47;72.51;98541.02;2219341;80;21304;-72
2021/04/21 02:05:45;;;;;;;41.73;17.55;;;;;;;5.51;72.53;98542.58;2219374;80;21134;-72
2021/04/21 02:08:47;;;;;;;38.65;17.10;;;;;;;5.51;72.38;98542.58;2219729;80;21277;-73
2021/04/21 02:11:49;;;;;;;39.25;17.27;;;;;;;5.50;72.34;98541.75;2219478;80;21114;-73
2021/04/21 02:14:51;;;;;;;36.73;16.67;;;;;;;5.53;72.66;98542.04;2219347;80;21138;-73
2021/04/21 02:17:53;;;;;;;40.98;18.48;;;;;;;5.59;72.60;98535.28;2219367;80;21153;-73
2021/04/21 02:20:55;;;;;;;41.48;18.32;;;;;;;5.63;73.06;98533.37;2219397;80;21168;-72
2021/04/21 02:23:57;;;;;;;40.43;16.90;;;;;;;5.71;72.99;98531.27;2219336;80;21728;-72
2021/04/21 02:26:59;;;;;;;45.65;19.87;;;;;;;5.78;73.11;98530.08;2219590;80;21138;-72
2021/04/21 02:30:03;;;;;;;41.77;18.80;;;;;;;5.83;72.76;98537.23;2219294;80;21182;-72
2021/04/21 02:33:05;;;;;;;43.52;19.02;;;;;;;5.85;72.62;98539.28;2219214;80;21268;-73
2021/04/21 02:36:06;;;;;;;45.25;18.45;;;;;;;5.88;72.64;98541.74;2219319;80;21292;-73
2021/04/21 02:39:09;;;;;;;56.90;21.42;;;;;;;5.90;72.84;98536.46;2219585;80;21728;-72
2021/04/21 02:45:28;;;;;;;50.63;24.15;;;;;;;5.78;73.39;98534.45;2211020;79;23487;-72
2021/04/21 02:48:29;;;;;;;47.55;24.87;;;;;;;5.83;73.28;98536.36;2178270;81;21719;-72
2021/04/21 02:51:30;;;;;;;52.17;25.77;;;;;;;5.83;73.67;98533.32;2148616;82;21257;-72
2021/04/21 02:54:31;;;;;;;54.42;26.02;;;;;;;5.79;73.18;98534.81;2178362;82;21123;-73
2021/04/21 02:57:32;;;;;;;52.03;25.32;;;;;;;5.76;73.46;98531.92;2178269;82;21131;-72
2021/04/21 03:00:33;;;;;;;45.98;21.82;;;;;;;5.69;73.48;98535.25;2178250;82;21142;-72
2021/04/21 03:03:34;;;;;;;42.35;21.30;;;;;;;5.61;73.40;98533.44;2178193;82;21605;-72
2021/04/21 03:06:35;;;;;;;50.78;26.65;;;;;;;5.51;73.16;98526.97;2148525;82;21261;-72
2021/04/21 03:09:36;;;;;;;42.25;21.85;;;;;;;5.37;73.11;98528.44;2178230;82;21280;-72
2021/04/21 03:12:37;;;;;;;46.98;23.35;;;;;;;5.25;73.02;98528.14;2178157;82;21123;-72
2021/04/21 03:15:38;;;;;;;46.10;20.68;;;;;;;5.11;73.10;98533.93;2178336;81;21710;-72
2021/04/21 03:18:39;;;;;;;37.85;17.02;;;;;;;4.91;73.91;98539.52;2178229;82;21131;-72
2021/04/21 03:21:40;;;;;;;38.50;18.45;;;;;;;4.58;74.15;98541.78;2178233;81;21253;-72
2021/04/21 03:24:41;;;;;;;56.40;27.55;;;;;;;4.36;74.13;98539.22;2178167;82;21618;-72
2021/04/21 03:27:42;;;;;;;51.25;23.62;;;;;;;4.33;74.40;98539.72;2178218;82;21618;-72
2021/04/21 03:30:43;;;;;;;45.08;20.52;;;;;;;4.34;74.52;98533.62;2178551;82;21159;-72
2021/04/21 03:33:44;;;;;;;44.27;19.12;;;;;;;4.36;74.58;98532.73;2178174;82;21150;-72
2021/04/21 03:36:45;;;;;;;36.80;15.93;;;;;;;4.37;74.59;98530.06;2178215;81;21129;-72
2021/04/21 03:39:46;;;;;;;37.42;17.55;;;;;;;4.38;74.59;98529.14;2178230;82;21729;-72
2021/04/21 03:42:47;;;;;;;46.25;24.67;;;;;;;4.45;74.73;98523.25;2178443;81;21308;-73
2021/04/21 03:45:49;;;;;;;45.60;22.60;;;;;;;4.49;74.62;98528.25;2179194;81;21184;-72
2021/04/21 03:48:50;;;;;;;46.75;24.45;;;;;;;4.43;74.64;98524.62;2179316;81;21752;-73
2021/04/21 03:51:51;;;;;;;49.95;22.75;;;;;;;4.41;74.80;98526.45;2179204;81;21154;-72
2021/04/21 03:54:52;;;;;;;43.75;19.82;;;;;;;4.41;74.91;98533.37;2178917;81;21134;-72
2021/04/21 03:57:53;;;;;;;53.65;22.30;;;;;;;4.47;75.18;98537.87;2178864;81;21608;-72
2021/04/21 04:00:54;;;;;;;47.73;22.17;;;;;;;4.53;75.20;98538.08;2178492;81;21122;-72
2021/04/21 04:03:55;;;;;;;70.52;30.48;;;;;;;4.56;75.10;98537.95;2178427;82;21146;-72
2021/04/21 04:06:57;;;;;;;86.22;36.77;;;;;;;4.64;74.96;98540.22;2150904;82;21737;-72
2021/04/21 04:09:58;;;;;;;66.37;29.18;;;;;;;4.67;74.97;98537.05;2178496;82;21091;-72
2021/04/21 04:12:59;;;;;;;58.70;26.30;;;;;;;4.70;75.19;98539.98;2178500;81;21142;-72
2021/04/21 04:16:00;;;;;;;57.53;26.12;;;;;;;4.74;75.11;98536.79;2178618;81;21289;-72
2021/04/21 04:19:01;;;;;;;43.60;19.42;;;;;;;4.83;75.42;98539.85;2178750;81;21275;-72
2021/04/21 04:22:02;;;;;;;47.73;19.70;;;;;;;4.93;75.49;98537.72;2178481;81;21634;-72
2021/04/21 04:25:03;;;;;;;45.35;21.57;;;;;;;5.04;75.53;98543.73;2178413;81;21594;-72
2021/04/21 04:28:04;;;;;;;46.75;24.82;;;;;;;5.14;75.74;98538.56;2178678;82;21269;-72
2021/04/21 04:31:06;;;;;;;46.90;23.60;;;;;;;5.26;75.82;98538.91;2178562;81;21245;-72
2021/04/21 04:34:07;;;;;;;47.60;24.35;;;;;;;5.39;75.76;98546.58;2178507;81;21613;-72
2021/04/21 04:37:08;;;;;;;50.08;27.48;;;;;;;5.47;75.74;98535.35;2178485;81;21147;-72
2021/04/21 04:40:09;;;;;;;50.67;26.10;;;;;;;5.57;76.19;98538.39;2178493;81;21114;-72
2021/04/21 04:43:10;;;;;;;50.43;23.70;;;;;;;5.71;76.13;98533.88;2178454;81;21281;-72
2021/04/21 04:46:11;;;;;;;62.83;27.15;;;;;;;5.87;76.08;98540.05;2178506;81;21581;-71
2021/04/21 04:49:12;;;;;;;63.33;29.85;;;;;;;5.98;75.96;98546.10;2178612;81;21725;-72
2021/04/21 04:52:14;;;;;;;59.35;27.75;;;;;;;6.14;75.80;98541.48;2178467;81;21313;-71
2021/04/21 04:55:15;;;;;;;58.38;30.40;;;;;;;6.24;75.84;98548.77;2178442;81;21134;-71
2021/04/21 04:58:16;;;;;;;61.53;31.00;;;;;;;6.37;76.17;98541.21;2178452;81;21582;-72
2021/04/21 05:01:17;;;;;;;59.10;30.97;;;;;;;6.52;75.94;98540.95;2178505;81;21178;-71
2021/04/21 05:04:18;;;;;;;57.27;30.55;;;;;;;6.66;76.05;98542.85;2178408;81;21292;-72
2021/04/21 05:07:18;;;;;;;60.45;30.85;;;;;;;6.83;76.31;98544.63;2178515;81;21123;-71
2021/04/21 05:10:20;;;;;;;55.70;28.23;;;;;;;7.01;76.98;98543.30;2178719;81;21273;-71
2021/04/21 05:13:20;;;;;;;54.08;28.35;;;;;;;7.16;77.13;98539.09;2150484;82;21154;-72
2021/04/21 05:16:21;;;;;;;59.58;29.72;;;;;;;7.30;77.11;98541.83;2178792;81;21158;-71
2021/04/21 05:19:23;;;;;;;60.95;30.82;;;;;;;7.43;77.22;98538.11;2178929;81;21167;-72
2021/04/21 05:22:23;;;;;;;59.83;30.70;;;;;;;7.54;77.17;98541.00;2178426;81;21164;-71
2021/04/21 05:25:24;;;;;;;56.48;28.98;;;;;;;7.65;77.45;98543.50;2178431;81;21154;-71
2021/04/21 05:28:25;;;;;;;54.90;26.77;;;;;;;7.73;77.62;98543.46;2178379;81;21220;-71
2021/04/21 05:31:26;;;;;;;49.83;26.37;;;;;;;7.86;76.87;98548.00;2178443;81;21079;-72
2021/04/21 05:34:27;;;;;;;52.93;28.47;;;;;;;7.97;76.78;98546.95;2178413;81;21088;-71
2021/04/21 05:37:29;;;;;;;50.52;26.15;;;;;;;8.08;76.79;98541.98;2178539;81;21260;-72
2021/04/21 05:40:30;;;;;;;51.40;27.15;;;;;;;8.19;76.54;98547.08;2178447;81;21123;-71
2021/04/21 05:43:31;;;;;;;52.67;25.65;;;;;;;8.26;76.31;98545.80;2178324;81;21162;-71
2021/04/21 05:46:32;;;;;;;47.00;24.82;;;;;;;8.33;75.95;98546.70;2178419;81;21606;-72
2021/04/21 05:49:33;;;;;;;48.28;25.05;;;;;;;8.44;75.98;98549.17;2178533;81;21772;-71
2021/04/21 05:52:34;;;;;;;47.50;25.70;;;;;;;8.58;76.34;98551.88;2178503;81;21111;-71
2021/04/21 05:55:35;;;;;;;50.52;26.12;;;;;;;8.70;76.08;98552.10;2178420;81;21135;-71
2021/04/21 05:58:37;;;;;;;48.40;24.85;;;;;;;8.75;75.36;98558.75;2150620;82;21284;-71
2021/04/21 06:01:38;;;;;;;47.48;24.40;;;;;;;8.80;75.61;98552.77;2150652;82;21712;-71
2021/04/21 06:04:39;;;;;;;45.73;24.47;;;;;;;8.94;74.80;98556.38;2178357;81;21170;-72
2021/04/21 06:07:40;;;;;;;43.73;24.25;;;;;;;9.04;75.37;98550.97;2178485;81;21594;-71
2021/04/21 06:10:41;;;;;;;47.00;25.57;;;;;;;9.13;74.83;98557.44;2178494;81;21095;-71
2021/04/21 06:13:42;;;;;;;48.33;24.98;;;;;;;9.15;74.82;98558.17;2178389;81;21306;-72
2021/04/21 06:16:43;;;;;;;58.33;26.95;;;;;;;9.26;75.12;98554.45;2150541;82;21670;-71
2021/04/21 06:19:44;;;;;;;49.48;25.48;;;;;;;9.53;75.14;98548.50;2178453;81;21126;-71
2021/04/21 06:22:46;;;;;;;47.93;24.33;;;;;;;9.77;74.31;98546.14;2178555;82;21284;-71
2021/04/21 06:25:47;;;;;;;43.68;22.42;;;;;;;10.10;72.29;98554.59;2178428;81;21591;-71
2021/04/21 06:28:48;;;;;;;44.63;23.95;;;;;;;10.23;71.78;98552.89;2178375;81;21103;-71
2021/04/21 06:31:49;;;;;;;41.50;21.65;;;;;;;10.41;72.45;98549.57;2178384;81;21582;-71
2021/04/21 06:34:50;;;;;;;37.95;19.27;;;;;;;10.62;71.75;98549.14;2178825;82;21106;-72
2021/04/21 06:37:52;;;;;;;39.47;20.57;;;;;;;10.83;71.04;98553.41;2178862;82;21261;-71
2021/04/21 06:40:53;;;;;;;36.08;18.73;;;;;;;11.06;71.42;98548.80;2178364;81;21150;-71
2021/04/21 06:43:56;;;;;;;37.40;18.43;;;;;;;11.28;70.24;98551.28;2176235;81;21151;-72
2021/04/21 06:46:57;;;;;;;36.08;18.32;;;;;;;11.33;69.47;98554.89;2140084;82;21726;-71
2021/04/21 06:49:58;;;;;;;35.92;18.10;;;;;;;11.27;69.76;98556.98;2161005;82;21124;-71
2021/04/21 06:52:59;;;;;;;32.90;16.37;;;;;;;11.36;69.24;98553.36;2139732;82;21266;-71
2021/04/21 06:56:00;;;;;;;33.42;16.80;;;;;;;11.52;66.92;98553.15;2161041;82;21127;-71
2021/04/21 06:59:01;;;;;;;31.77;16.25;;;;;;;11.72;68.24;98546.05;2161183;82;21107;-71
2021/04/21 07:02:02;;;;;;;31.23;15.68;;;;;;;12.02;67.04;98551.41;2160951;82;21178;-71
2021/04/21 07:05:03;;;;;;;32.17;16.37;;;;;;;12.15;65.64;98549.23;2160963;82;21140;-71
2021/04/21 07:08:05;;;;;;;29.85;15.08;;;;;;;12.05;65.61;98549.91;2161525;82;21293;-71
2021/04/21 07:11:06;;;;;;;29.32;15.18;;;;;;;12.24;64.55;98552.49;2160957;82;21130;-71
2021/04/21 07:14:08;;;;;;;29.72;14.80;;;;;;;12.41;66.19;98544.70;2161071;82;21294;-71
2021/04/21 07:17:09;;;;;;;30.60;15.32;;;;;;;12.50;63.63;98549.77;2161431;82;21289;-71
2021/04/21 07:20:11;;;;;;;28.77;13.78;;;;;;;12.74;64.45;98544.03;2161036;82;21143;-71
2021/04/21 07:23:12;;;;;;;28.30;12.93;;;;;;;12.84;62.70;98548.11;2160898;82;21175;-71
2021/04/21 07:26:13;;;;;;;26.35;12.15;;;;;;;12.76;61.54;98553.95;2160927;82;21572;-71
2021/04/21 07:29:14;;;;;;;26.82;11.90;;;;;;;12.74;63.16;98548.43;2161051;82;21150;-71
2021/04/21 07:32:15;;;;;;;25.90;11.50;;;;;;;12.87;61.97;98556.25;2161085;82;21131;-71
2021/04/21 07:35:16;;;;;;;25.25;11.83;;;;;;;12.82;60.96;98553.48;2161103;82;21163;-71
2021/04/21 07:38:17;;;;;;;26.25;12.30;;;;;;;12.62;59.60;98558.91;2161230;82;21124;-71
2021/04/21 07:41:18;;;;;;;30.02;13.35;;;;;;;12.55;61.73;98564.75;2161107;82;21277;-71
2021/04/21 07:44:19;;;;;;;27.48;13.65;;;;;;;12.46;61.57;98561.00;2161126;82;21600;-71
2021/04/21 07:47:20;;;;;;;30.10;12.30;;;;;;;12.28;62.26;98561.84;2161126;82;21730;-71
2021/04/21 07:50:21;;;;;;;27.85;12.75;;;;;;;12.36;60.60;98563.45;2161164;82;21140;-71
2021/04/21 07:53:22;;;;;;;28.00;13.58;;;;;;;12.60;63.33;98554.25;2161213;82;21124;-71
2021/04/21 07:56:26;;;;;;;26.90;11.93;;;;;;;12.75;61.27;98562.79;2161442;82;21312;-71
2021/04/21 07:59:27;;;;;;;27.65;13.05;;;;;;;12.61;60.74;98553.30;2161087;82;21729;-71
2021/04/21 08:02:30;;;;;;;27.83;12.97;;;;;;;12.78;61.70;98545.45;2161532;82;21294;-71
2021/04/21 08:05:32;;;;;;;29.72;14.20;;;;;;;13.35;61.42;98546.95;2161152;82;21592;-71
2021/04/21 08:08:33;;;;;;;24.77;11.73;;;;;;;13.80;62.12;98545.63;2161200;82;21277;-71
2021/04/21 08:11:34;;;;;;;27.62;12.88;;;;;;;14.10;58.48;98543.33;2161681;82;21134;-71
2021/04/21 08:14:36;;;;;;;25.25;11.65;;;;;;;14.32;58.68;98547.70;2161408;82;21745;-71
2021/04/21 08:17:37;;;;;;;23.83;10.17;;;;;;;14.49;57.05;98542.38;2161269;82;21749;-70
2021/04/21 08:20:38;;;;;;;23.25;9.90;;;;;;;14.78;58.32;98540.00;2161094;82;21414;-71
2021/04/21 08:23:39;;;;;;;21.90;9.00;;;;;;;15.13;57.30;98535.38;2161177;82;21143;-71
2021/04/21 08:26:41;;;;;;;21.42;9.10;;;;;;;15.44;52.13;98540.70;2161069;82;21737;-71
2021/04/21 08:29:41;;;;;;;20.55;7.53;;;;;;;15.50;54.29;98542.34;2161176;82;21088;-71
2021/04/21 08:32:42;;;;;;;21.37;7.92;;;;;;;15.23;50.49;98552.14;2140066;82;21151;-71
2021/04/21 08:35:43;;;;;;;21.85;7.95;;;;;;;15.13;51.74;98544.62;2161079;82;21147;-71
2021/04/21 08:38:44;;;;;;;23.32;9.18;;;;;;;15.38;55.18;98541.57;2161035;82;21109;-71
2021/04/21 08:41:45;;;;;;;22.30;8.75;;;;;;;15.93;54.07;98534.68;2161028;82;21156;-71
2021/04/21 08:44:46;;;;;;;23.05;9.15;;;;;;;15.86;50.56;98535.33;2161008;82;21290;-71
2021/04/21 08:47:48;;;;;;;22.65;8.43;;;;;;;15.65;51.70;98545.46;2161062;82;21099;-71
2021/04/21 08:50:49;;;;;;;23.23;9.33;;;;;;;15.48;51.01;98551.38;2140415;82;21257;-71
2021/04/21 08:53:51;;;;;;;23.40;9.85;;;;;;;15.07;49.98;98560.53;2161171;81;21130;-71
2021/04/21 08:56:52;;;;;;;24.18;10.30;;;;;;;14.61;51.28;98555.05;2161142;82;21750;-71
2021/04/21 08:59:53;;;;;;;26.62;10.75;;;;;;;14.32;52.88;98552.52;2161509;82;21301;-71
2021/04/21 09:02:54;;;;;;;24.70;10.45;;;;;;;14.35;52.72;98540.86;2160988;82;21148;-71
2021/04/21 09:05:56;;;;;;;23.92;9.80;;;;;;;14.58;53.73;98528.91;2161022;82;21108;-71
2021/04/21 09:08:57;;;;;;;24.18;9.68;;;;;;;14.46;52.98;98557.97;2161159;82;21151;-71
2021/04/21 09:12:00;;;;;;;23.87;9.63;;;;;;;14.63;52.88;98553.17;2161075;82;21147;-71
2021/04/21 09:15:02;;;;;;;24.87;9.88;;;;;;;15.25;52.26;98535.67;2161245;82;21321;-70
2021/04/21 09:18:04;;;;;;;20.97;7.60;;;;;;;15.71;52.16;98539.63;2161496;82;21194;-71
2021/04/21 09:21:05;;;;;;;23.92;9.68;;;;;;;15.58;49.34;98553.57;2161266;82;21607;-71
2021/04/21 09:24:06;;;;;;;21.97;8.55;;;;;;;14.91;48.86;98542.45;2161317;82;21706;-71
2021/04/21 09:27:07;;;;;;;22.82;9.10;;;;;;;14.56;50.21;98536.95;2161019;82;21115;-71
2021/04/21 09:30:08;;;;;;;24.02;9.65;;;;;;;14.95;50.14;98525.89;2161114;82;21257;-71
2021/04/21 09:33:09;;;;;;;25.45;9.63;;;;;;;15.57;52.68;98516.20;2140020;82;21140;-71
2021/04/21 09:36:10;;;;;;;22.07;8.68;;;;;;;15.73;49.99;98509.95;2161333;82;21278;-71
2021/04/21 09:39:11;;;;;;;21.97;8.35;;;;;;;15.34;49.64;98514.23;2161002;82;21144;-71
2021/04/21 09:42:12;;;;;;;21.45;8.13;;;;;;;14.89;49.64;98518.82;2160996;82;21116;-71
2021/04/21 09:45:13;;;;;;;20.32;8.00;;;;;;;14.55;49.47;98511.06;2160914;81;21166;-71
2021/04/21 09:48:15;;;;;;;20.80;7.35;;;;;;;14.32;49.36;98515.59;2140132;82;21297;-71
2021/04/21 09:51:16;;;;;;;18.32;6.25;;;;;;;14.03;51.25;98521.38;2161108;82;21128;-71
2021/04/21 09:54:17;;;;;;;19.07;6.72;;;;;;;13.84;49.67;98514.61;2161195;81;21120;-71
2021/04/21 09:57:18;;;;;;;19.50;6.80;;;;;;;13.80;50.16;98511.36;2161232;82;21741;-72
2021/04/21 10:00:19;;;;;;;22.37;8.65;;;;;;;14.60;50.39;98505.88;2160998;82;21155;-71
2021/04/21 10:03:20;;;;;;;20.85;7.65;;;;;;;15.33;48.38;98497.55;2161280;82;21599;-71
2021/04/21 10:06:21;;;;;;;20.55;7.62;;;;;;;15.71;49.00;98502.62;2161344;82;21293;-71
2021/04/21 10:09:22;;;;;;;21.87;8.30;;;;;;;16.19;47.74;98481.27;2160976;82;21111;-71
2021/04/21 10:12:24;;;;;;;20.67;7.77;;;;;;;16.93;46.90;98471.08;2161325;82;21712;-71
2021/04/21 10:15:24;;;;;;;19.82;6.90;;;;;;;17.05;44.95;98461.14;2161087;82;21119;-71
2021/04/21 10:18:25;;;;;;;20.70;6.70;;;;;;;16.41;45.78;98474.86;2161100;82;21116;-71
2021/04/21 10:21:26;;;;;;;20.40;7.40;;;;;;;15.86;44.55;98475.37;2161112;82;21123;-71
2021/04/21 10:24:27;;;;;;;21.85;7.65;;;;;;;15.40;47.57;98471.41;2161040;82;21146;-71
2021/04/21 10:27:29;;;;;;;23.18;8.23;;;;;;;14.90;47.64;98509.12;2161096;82;21591;-71
2021/04/21 10:30:30;;;;;;;21.35;7.85;;;;;;;14.41;51.01;98499.94;2160956;82;21131;-71
2021/04/21 10:33:32;;;;;;;21.10;7.60;;;;;;;14.04;52.97;98489.28;2160914;82;21146;-71
2021/04/21 10:36:33;;;;;;;20.95;7.58;;;;;;;13.90;52.90;98486.91;2161101;82;21163;-71
2021/04/21 10:39:35;;;;;;;22.02;7.28;;;;;;;13.82;51.79;98485.73;2161062;82;21128;-71
2021/04/21 10:42:36;;;;;;;20.52;6.80;;;;;;;13.86;50.41;98492.44;2161068;82;21139;-71
2021/04/21 10:45:37;;;;;;;20.37;6.75;;;;;;;13.82;49.86;98473.88;2166100;82;21186;-72
2021/04/21 10:48:38;;;;;;;21.00;6.45;;;;;;;14.13;52.30;98475.83;2178394;81;21150;-72
2021/04/21 10:51:40;;;;;;;19.92;5.80;;;;;;;14.87;50.47;98465.32;2178722;81;21284;-71
2021/04/21 10:54:41;;;;;;;15.75;5.15;;;;;;;15.40;48.46;98460.84;2150754;82;21141;-72
2021/04/21 10:57:42;;;;;;;17.98;5.87;;;;;;;15.73;47.21;98446.50;2178734;81;21566;-71
2021/04/21 11:00:46;;;;;;;18.20;5.62;;;;;;;15.89;45.75;98453.94;2178361;81;21178;-71
2021/04/21 11:03:47;;;;;;;17.55;5.42;;;;;;;16.06;43.81;98463.48;2178283;81;21320;-71
2021/04/21 11:06:48;;;;;;;15.20;4.65;;;;;;;16.22;44.17;98472.20;2178518;81;21138;-71
2021/04/21 11:09:50;;;;;;;20.12;6.62;;;;;;;16.32;45.20;98458.97;2178702;81;21760;-71
2021/04/21 11:12:51;;;;;;;20.85;6.67;;;;;;;16.41;45.38;98467.42;2178646;82;21115;-71
2021/04/21 11:15:54;;;;;;;18.73;5.60;;;;;;;16.64;44.91;98462.66;2178547;81;21115;-71
2021/04/21 11:18:55;;;;;;;20.70;6.20;;;;;;;16.55;43.76;98455.55;2178622;81;21297;-71
2021/04/21 11:21:56;;;;;;;18.05;6.35;;;;;;;16.17;43.56;98473.94;2178479;81;21135;-72
2021/04/21 11:24:57;;;;;;;17.95;6.10;;;;;;;15.54;44.95;98493.55;2178492;81;21221;-71
2021/04/21 11:27:58;;;;;;;17.75;6.00;;;;;;;14.32;47.00;98574.94;2178569;81;21586;-71
2021/04/21 11:31:00;;;;;;;21.65;7.47;;;;;;;13.15;51.46;98569.50;2178641;81;21296;-71
2021/04/21 11:34:01;;;;;;;17.73;6.28;;;;;;;12.22;58.12;98547.34;2178522;81;21718;-71
2021/04/21 11:37:02;;;;;;;19.25;6.90;;;;;;;11.44;61.99;98566.34;2178531;81;21119;-72
2021/04/21 11:40:07;;;;;;;20.55;7.70;;;;;;;10.91;67.40;98549.81;2178537;81;21748;-72
2021/04/21 11:43:06;;;;;;;19.80;6.67;;;;;;;10.63;67.95;98536.37;2178194;82;21281;-72
2021/04/21 11:46:07;;;;;;;19.25;6.50;;;;;;;10.67;64.75;98519.01;2171824;81;21112;-72
2021/04/21 11:49:08;;;;;;;19.70;6.70;;;;;;;10.92;63.15;98499.03;2161127;82;21175;-72
2021/04/21 11:52:09;;;;;;;19.12;6.65;;;;;;;11.44;64.52;98487.55;2161101;82;21135;-72
2021/04/21 11:55:10;;;;;;;17.80;6.60;;;;;;;12.41;63.71;98485.52;2161278;82;21611;-72
2021/04/21 11:58:11;;;;;;;20.82;8.08;;;;;;;13.38;60.91;98479.53;2161113;82;21262;-72
2021/04/21 12:01:13;;;;;;;17.47;6.33;;;;;;;14.26;62.22;98473.86;2161744;81;21282;-71
2021/04/21 12:04:15;;;;;;;17.50;6.05;;;;;;;15.30;57.90;98465.25;2161195;81;22000;-71
2021/04/21 12:07:17;;;;;;;17.85;6.00;;;;;;;16.08;57.28;98458.41;2161455;82;21718;-71
2021/04/21 12:10:18;;;;;;;17.42;5.03;;;;;;;16.62;53.28;98446.06;2161207;82;21139;-71
2021/04/21 12:13:19;;;;;;;15.43;4.77;;;;;;;16.76;52.90;98446.13;2161321;82;21611;-71
2021/04/21 12:16:20;;;;;;;16.23;5.60;;;;;;;16.95;49.31;98456.72;2161181;82;21135;-71
2021/04/21 12:19:21;;;;;;;17.73;5.92;;;;;;;16.87;49.67;98451.77;2161188;82;21122;-71
2021/04/21 12:22:22;;;;;;;19.35;6.58;;;;;;;16.83;48.65;98451.70;2161112;82;21301;-71
2021/04/21 12:25:23;;;;;;;17.67;5.92;;;;;;;16.32;48.40;98449.71;2161082;82;21170;-71
2021/04/21 12:28:24;;;;;;;21.37;6.83;;;;;;;15.41;49.63;98459.88;2161080;82;21633;-71
2021/04/21 12:31:26;;;;;;;18.65;6.25;;;;;;;14.97;52.32;98467.17;2140128;82;21274;-71
2021/04/21 12:34:27;;;;;;;21.15;6.72;;;;;;;14.68;51.40;98477.06;2161397;82;21128;-71
2021/04/21 12:37:28;;;;;;;20.45;7.37;;;;;;;14.55;52.22;98467.98;2161541;82;21285;-71
2021/04/21 12:40:29;;;;;;;19.42;7.50;;;;;;;14.93;51.88;98467.92;2161170;82;21124;-71
2021/04/21 12:43:30;;;;;;;20.00;7.10;;;;;;;15.24;54.64;98459.55;2161278;81;21575;-71
2021/04/21 12:46:32;;;;;;;21.37;7.95;;;;;;;15.48;47.80;98435.91;2168507;82;22043;-71
2021/04/21 12:49:34;;;;;;;22.17;8.05;;;;;;;15.89;50.31;98434.09;2178727;81;21289;-71
2021/04/21 12:52:35;;;;;;;22.67;7.10;;;;;;;16.33;49.51;98435.52;2178629;81;21277;-71
2021/04/21 12:55:36;;;;;;;20.30;7.97;;;;;;;16.46;46.16;98432.09;2178805;82;21154;-71
2021/04/21 12:58:38;;;;;;;20.97;6.83;;;;;;;16.82;49.05;98416.41;2178967;81;21575;-71
2021/04/21 13:01:39;;;;;;;20.30;6.62;;;;;;;17.12;43.67;98424.67;2178771;82;21186;-71
2021/04/21 13:04:40;;;;;;;16.42;5.35;;;;;;;17.08;43.34;98417.99;2178527;81;21598;-71
2021/04/21 13:07:42;;;;;;;18.80;6.00;;;;;;;17.11;41.62;98412.87;2178702;81;21289;-71
2021/04/21 13:10:43;;;;;;;17.70;5.45;;;;;;;17.12;41.23;98430.45;2150831;82;21099;-71
2021/04/21 13:13:44;;;;;;;18.87;6.65;;;;;;;16.50;41.52;98418.09;2178403;81;21288;-71
2021/04/21 13:16:45;;;;;;;19.57;7.17;;;;;;;16.35;43.32;98413.23;2178431;81;21264;-71
2021/04/21 13:19:46;;;;;;;16.82;5.80;;;;;;;16.81;45.93;98409.47;2178579;81;21606;-71
2021/04/21 13:22:47;;;;;;;20.90;7.00;;;;;;;17.22;42.23;98405.23;2178480;81;21095;-71
2021/04/21 13:25:48;;;;;;;20.37;6.30;;;;;;;17.54;43.90;98393.36;2178405;81;21170;-71
2021/04/21 13:28:49;;;;;;;18.55;6.03;;;;;;;18.03;42.95;98395.23;2178375;81;21147;-71
2021/04/21 13:31:50;;;;;;;18.07;5.75;;;;;;;18.07;39.49;98391.77;2178727;81;21594;-71
2021/04/21 13:34:51;;;;;;;19.23;6.10;;;;;;;17.96;42.12;98383.05;2178424;82;21126;-71
2021/04/21 13:37:52;;;;;;;20.65;6.25;;;;;;;18.16;42.51;98377.60;2178875;81;21107;-71
2021/04/21 13:40:53;;;;;;;22.07;6.80;;;;;;;18.38;39.97;98380.77;2178415;81;21162;-71
2021/04/21 13:43:54;;;;;;;18.43;6.23;;;;;;;18.22;42.49;98376.16;2178593;81;21749;-71
2021/04/21 13:46:55;;;;;;;19.32;6.47;;;;;;;18.38;39.67;98379.44;2170511;81;21140;-71
2021/04/21 13:49:56;;;;;;;19.30;6.20;;;;;;;18.43;38.15;98375.33;2161087;82;21120;-71
2021/04/21 13:52:57;;;;;;;22.40;6.83;;;;;;;18.11;39.08;98371.41;2161194;82;21603;-71
2021/04/21 13:55:58;;;;;;;17.55;6.08;;;;;;;18.03;37.70;98363.87;2160993;82;21147;-71
2021/04/21 13:58:59;;;;;;;20.20;6.35;;;;;;;18.44;39.79;98367.68;2161001;82;21155;-71
2021/04/21 14:02:00;;;;;;;18.95;6.80;;;;;;;18.64;38.92;98356.87;2161078;82;21608;-71
2021/04/21 14:05:01;;;;;;;20.62;7.15;;;;;;;18.31;38.85;98348.17;2160967;82;21615;-71